createdAt,value
2022-10-05T00:02:24.781Z,46.00
2022-10-05T00:04:58.830Z,45.54
2022-10-05T00:07:25.623Z,45.73
2022-10-05T00:09:57.716Z,46.49
2022-10-05T00:12:26.115Z,46.63
2022-10-05T00:15:00.399Z,45.75
2022-10-05T00:17:30.416Z,45.82
2022-10-05T00:19:57.176Z,46.24
2022-10-05T00:22:33.986Z,45.51
2022-10-05T00:25:11.173Z,46.73
2022-10-05T00:27:38.977Z,45.82
2022-10-05T00:30:18.860Z,46.69
2022-10-05T00:32:46.230Z,46.83
2022-10-05T00:35:14.464Z,46.36
2022-10-05T00:37:41.955Z,46.93
2022-10-05T00:41:00.539Z,47.02
2022-10-05T00:43:30.113Z,46.47
2022-10-05T00:46:08.861Z,46.91
2022-10-05T00:48:48.917Z,46.93
2022-10-05T00:51:33.705Z,46.93
2022-10-05T00:54:43.703Z,47.39
2022-10-05T00:57:28.859Z,46.60
2022-10-05T01:00:09.427Z,46.82
2022-10-05T01:03:06.786Z,46.55
2022-10-05T01:05:52.257Z,47.04
2022-10-05T01:08:47.911Z,47.06
2022-10-05T01:11:17.538Z,47.33
2022-10-05T01:13:56.578Z,47.57
2022-10-05T01:16:23.478Z,47.81
2022-10-05T01:19:13.265Z,48.00
2022-10-05T01:21:57.120Z,47.74
2022-10-05T01:24:57.790Z,47.93
2022-10-05T01:27:33.616Z,47.44
2022-10-05T01:30:12.214Z,47.54
2022-10-05T01:32:59.381Z,47.32
2022-10-05T01:35:34.399Z,47.17
2022-10-05T01:38:24.380Z,48.32
2022-10-05T01:40:56.597Z,47.59
2022-10-05T01:43:44.197Z,47.42
2022-10-05T01:46:20.147Z,47.36
2022-10-05T01:49:23.979Z,48.27
2022-10-05T01:52:09.054Z,47.31
2022-10-05T01:54:35.847Z,47.82
2022-10-05T01:57:05.589Z,47.81
2022-10-05T01:59:35.326Z,47.69
2022-10-05T02:02:07.886Z,47.80
2022-10-05T02:05:01.568Z,47.91
2022-10-05T02:08:12.227Z,48.41
2022-10-05T02:10:51.851Z,48.23
2022-10-05T02:13:32.225Z,48.40
2022-10-05T02:16:04.531Z,49.58
2022-10-05T02:18:40.723Z,49.76
2022-10-05T02:21:09.016Z,50.25
2022-10-05T02:23:39.538Z,49.84
2022-10-05T02:26:11.265Z,51.23
2022-10-05T02:28:46.732Z,50.07
2022-10-05T02:31:25.729Z,49.19
2022-10-05T02:33:52.677Z,48.95
2022-10-05T02:36:29.402Z,48.83
2022-10-05T02:39:01.044Z,48.50
2022-10-05T02:41:53.351Z,48.76
2022-10-05T02:44:37.292Z,48.34
2022-10-05T02:47:28.019Z,48.54
2022-10-05T02:50:14.686Z,48.08
2022-10-05T02:52:57.420Z,48.91
2022-10-05T02:55:44.516Z,47.96
2022-10-05T02:58:18.483Z,48.68
2022-10-05T03:01:03.335Z,48.55
2022-10-05T03:03:43.200Z,48.23
2022-10-05T03:06:29.091Z,48.41
2022-10-05T03:09:01.267Z,48.90
2022-10-05T03:11:43.751Z,48.31
2022-10-05T03:14:23.120Z,48.33
2022-10-05T03:17:18.228Z,49.13
2022-10-05T03:19:50.897Z,49.05
2022-10-05T03:22:36.515Z,48.69
2022-10-05T03:25:40.668Z,48.45
2022-10-05T03:28:19.059Z,48.71
2022-10-05T03:31:03.005Z,49.04
2022-10-05T03:34:11.273Z,48.63
2022-10-05T03:36:53.736Z,48.97
2022-10-05T03:39:31.576Z,48.42
2022-10-05T03:42:15.168Z,49.01
2022-10-05T03:44:44.742Z,48.61
2022-10-05T03:47:37.251Z,48.27
2022-10-05T03:50:25.568Z,49.50
2022-10-05T03:53:00.244Z,49.84
2022-10-05T03:55:39.407Z,49.48
2022-10-05T03:58:15.940Z,49.62
2022-10-05T04:00:47.660Z,49.84
2022-10-05T04:03:25.958Z,49.52
2022-10-05T04:06:03.100Z,49.00
2022-10-05T04:09:00.341Z,48.85
2022-10-05T04:11:37.881Z,49.10
2022-10-05T04:14:22.771Z,48.84
2022-10-05T04:16:57.858Z,48.87
2022-10-05T04:19:32.480Z,48.65
2022-10-05T04:22:03.821Z,48.91
2022-10-05T04:24:40.113Z,48.85
2022-10-05T04:27:17.598Z,48.72
2022-10-05T04:30:02.842Z,49.19
2022-10-05T04:32:38.852Z,49.63
2022-10-05T04:35:31.949Z,49.46
2022-10-05T04:38:22.819Z,50.32
2022-10-05T04:41:24.691Z,50.09
2022-10-05T04:44:01.311Z,50.51
2022-10-05T04:47:05.783Z,50.36
2022-10-05T04:49:51.409Z,49.83
2022-10-05T04:52:30.422Z,49.44
2022-10-05T04:55:25.121Z,49.88
2022-10-05T04:58:02.327Z,50.92
2022-10-05T05:00:38.274Z,50.95
2022-10-05T05:03:26.898Z,50.78
2022-10-05T05:06:17.327Z,49.56
2022-10-05T05:08:58.594Z,49.56
2022-10-05T05:12:03.697Z,49.11
2022-10-05T05:14:47.427Z,49.59
2022-10-05T05:17:32.553Z,48.99
2022-10-05T05:20:19.539Z,48.56
2022-10-05T05:23:05.917Z,48.89
2022-10-05T05:25:50.552Z,49.35
2022-10-05T05:28:34.531Z,49.71
2022-10-05T05:31:27.802Z,49.70
2022-10-05T05:34:47.058Z,49.28
2022-10-05T05:37:38.151Z,50.89
2022-10-05T05:40:16.233Z,50.03
2022-10-05T05:42:51.622Z,48.80
2022-10-05T05:45:42.634Z,48.87
2022-10-05T05:48:42.309Z,47.99
2022-10-05T05:51:19.153Z,48.39
2022-10-05T05:53:50.942Z,48.89
2022-10-05T05:56:26.059Z,48.25
2022-10-05T05:58:59.369Z,47.88
2022-10-05T06:01:47.646Z,47.98
2022-10-05T06:04:22.124Z,48.61
2022-10-05T06:06:52.632Z,47.91
2022-10-05T06:09:33.876Z,48.28
2022-10-05T06:12:58.426Z,47.79
2022-10-05T06:15:41.076Z,47.69
2022-10-05T06:18:18.642Z,47.65
2022-10-05T06:20:54.753Z,47.69
2022-10-05T06:23:35.898Z,47.32
2022-10-05T06:26:28.676Z,47.13
2022-10-05T06:29:09.052Z,47.56
2022-10-05T06:32:03.259Z,47.37
2022-10-05T06:34:39.474Z,47.61
2022-10-05T06:37:38.861Z,47.31
2022-10-05T06:40:18.495Z,46.80
2022-10-05T06:43:17.742Z,46.87
2022-10-05T06:46:19.533Z,47.19
2022-10-05T06:49:29.265Z,46.61
2022-10-05T06:52:46.396Z,47.44
2022-10-05T06:55:22.347Z,47.53
2022-10-05T06:57:56.043Z,46.92
2022-10-05T07:00:29.320Z,47.73
2022-10-05T07:03:15.804Z,47.64
2022-10-05T07:05:45.742Z,45.98
2022-10-05T07:08:38.298Z,46.85
2022-10-05T07:11:19.920Z,47.69
2022-10-05T07:14:08.718Z,47.11
2022-10-05T07:16:58.912Z,46.80
2022-10-05T07:19:55.827Z,46.51
2022-10-05T07:22:34.673Z,46.21
2022-10-05T07:25:08.534Z,46.00
2022-10-05T07:28:00.575Z,46.69
2022-10-05T07:30:29.619Z,46.13
2022-10-05T07:33:01.866Z,45.93
2022-10-05T07:35:58.882Z,45.46
2022-10-05T07:38:31.026Z,45.34
2022-10-05T07:41:15.427Z,45.68
2022-10-05T07:44:11.645Z,45.50
2022-10-05T07:46:54.569Z,45.02
2022-10-05T07:49:29.161Z,45.21
2022-10-05T07:52:00.780Z,45.00
2022-10-05T07:54:38.309Z,44.63
2022-10-05T07:57:19.459Z,44.10
2022-10-05T08:00:01.478Z,44.22
2022-10-05T08:02:41.977Z,43.77
2022-10-05T08:05:15.713Z,43.88
2022-10-05T08:07:43.086Z,44.14
2022-10-05T08:10:41.687Z,43.18
2022-10-05T08:13:24.777Z,42.80
2022-10-05T08:15:57.345Z,42.89
2022-10-05T08:18:50.326Z,42.40
2022-10-05T08:21:23.059Z,42.18
2022-10-05T08:24:30.635Z,41.98
2022-10-05T08:27:20.300Z,41.17
2022-10-05T08:30:04.561Z,42.48
2022-10-05T08:32:51.328Z,42.08
2022-10-05T08:35:34.003Z,41.70
2022-10-05T08:38:04.389Z,40.58
2022-10-05T08:40:50.308Z,39.28
2022-10-05T08:43:54.934Z,37.77
2022-10-05T08:46:49.344Z,37.85
2022-10-05T08:49:36.246Z,37.84
2022-10-05T08:52:21.179Z,38.05
2022-10-05T08:54:59.897Z,37.77
2022-10-05T08:57:46.525Z,37.80
2022-10-05T09:00:45.712Z,37.26
2022-10-05T09:03:25.760Z,35.30
2022-10-05T09:06:21.848Z,36.04
2022-10-05T09:09:03.231Z,35.00
2022-10-05T09:11:35.711Z,35.34
2022-10-05T09:14:21.628Z,33.78
2022-10-05T09:16:58.963Z,33.82
2022-10-05T09:19:53.611Z,33.74
2022-10-05T09:22:30.237Z,32.50
2022-10-05T09:25:03.846Z,33.38
2022-10-05T09:27:37.380Z,32.93
2022-10-05T09:30:21.781Z,31.96
2022-10-05T09:33:03.703Z,32.52
2022-10-05T09:36:12.404Z,32.00
2022-10-05T09:39:08.024Z,32.15
2022-10-05T09:42:26.020Z,31.91
2022-10-05T09:45:17.779Z,32.01
2022-10-05T09:48:32.304Z,32.33
2022-10-05T09:51:01.911Z,30.65
2022-10-05T09:54:03.795Z,30.58
2022-10-05T09:56:50.111Z,30.77
2022-10-05T09:59:48.103Z,30.90
2022-10-05T10:02:24.549Z,29.77
2022-10-05T10:05:25.627Z,29.96
2022-10-05T10:08:06.000Z,29.63
2022-10-05T10:11:09.810Z,31.01
2022-10-05T10:13:42.692Z,29.78
2022-10-05T10:16:43.471Z,29.68
2022-10-05T10:19:18.790Z,30.06
2022-10-05T10:22:11.182Z,30.26
2022-10-05T10:24:56.089Z,30.51
2022-10-05T10:27:54.880Z,29.50
2022-10-05T10:30:56.418Z,29.74
2022-10-05T10:33:55.733Z,29.23
2022-10-05T10:36:51.911Z,28.76
2022-10-05T10:39:32.062Z,30.17
2022-10-05T10:42:11.193Z,29.80
2022-10-05T10:44:58.856Z,29.78
2022-10-05T10:47:39.538Z,29.78
2022-10-05T10:50:37.013Z,29.22
2022-10-05T10:53:18.768Z,29.77
2022-10-05T10:55:58.173Z,28.51
2022-10-05T10:58:49.780Z,27.95
2022-10-05T11:01:30.045Z,28.75
2022-10-05T11:04:08.838Z,29.41
2022-10-05T11:07:02.373Z,28.62
2022-10-05T11:09:45.555Z,29.06
2022-10-05T11:12:34.807Z,27.92
2022-10-05T11:15:23.075Z,28.57
2022-10-05T11:18:05.422Z,26.87
2022-10-05T11:20:50.446Z,26.28
2022-10-05T11:23:17.203Z,26.54
2022-10-05T11:25:49.757Z,27.16
2022-10-05T11:28:27.773Z,27.81
2022-10-05T11:31:31.100Z,26.12
2022-10-05T11:34:04.075Z,26.15
2022-10-05T11:36:39.920Z,25.29
2022-10-05T11:39:42.431Z,24.52
2022-10-05T11:42:30.898Z,25.17
2022-10-05T11:45:21.872Z,23.91
2022-10-05T11:48:00.596Z,24.82
2022-10-05T11:50:33.951Z,25.04
2022-10-05T11:53:08.593Z,24.39
2022-10-05T11:55:42.624Z,24.56
2022-10-05T11:58:20.463Z,24.38
2022-10-05T12:00:59.074Z,22.84
2022-10-05T12:03:51.021Z,23.11
2022-10-05T12:06:55.363Z,24.06
2022-10-05T12:10:14.337Z,23.46
2022-10-05T12:13:04.583Z,23.66
2022-10-05T12:15:37.913Z,22.88
2022-10-05T12:18:17.519Z,24.48
2022-10-05T12:21:16.838Z,23.23
2022-10-05T12:23:53.742Z,23.26
2022-10-05T12:26:31.873Z,23.07
2022-10-05T12:29:23.724Z,22.88
2022-10-05T12:32:03.224Z,22.16
2022-10-05T12:34:48.816Z,22.05
2022-10-05T12:37:49.032Z,22.18
2022-10-05T12:40:46.215Z,21.73
2022-10-05T12:44:03.759Z,21.98
2022-10-05T12:46:44.751Z,20.39
2022-10-05T12:49:50.921Z,21.38
2022-10-05T12:52:26.544Z,20.82
2022-10-05T12:55:03.350Z,20.48
2022-10-05T12:57:53.449Z,20.77
2022-10-05T13:00:23.195Z,19.65
2022-10-05T13:03:03.593Z,20.68
2022-10-05T13:05:51.791Z,20.57
2022-10-05T13:08:30.639Z,20.59
2022-10-05T13:11:06.157Z,20.38
2022-10-05T13:13:48.242Z,19.44
2022-10-05T13:16:15.734Z,19.44
2022-10-05T13:19:00.887Z,18.69
2022-10-05T13:21:56.747Z,19.15
2022-10-05T13:24:29.886Z,18.89
2022-10-05T13:27:05.678Z,19.13
2022-10-05T13:29:40.557Z,18.20
2022-10-05T13:32:22.430Z,17.59
2022-10-05T13:34:57.523Z,17.17
2022-10-05T13:37:41.584Z,17.32
2022-10-05T13:40:28.327Z,17.20
2022-10-05T13:43:20.241Z,18.11
2022-10-05T13:45:57.010Z,17.43
2022-10-05T13:48:42.720Z,17.98
2022-10-05T13:51:18.458Z,17.47
2022-10-05T13:53:56.217Z,17.03
2022-10-05T13:56:32.559Z,17.79
2022-10-05T13:59:15.737Z,17.92
2022-10-05T14:01:46.409Z,18.45
2022-10-05T14:04:24.762Z,19.24
2022-10-05T14:06:54.859Z,19.32
2022-10-05T14:09:29.173Z,19.26
2022-10-05T14:12:11.927Z,19.13
2022-10-05T14:14:54.663Z,18.80
2022-10-05T14:17:33.492Z,19.87
2022-10-05T14:20:06.637Z,20.78
2022-10-05T14:22:41.474Z,21.65
2022-10-05T14:25:08.303Z,22.87
2022-10-05T14:27:48.379Z,22.99
2022-10-05T14:30:15.199Z,22.67
2022-10-05T14:33:00.512Z,24.25
2022-10-05T14:35:43.797Z,24.42
2022-10-05T14:38:26.369Z,24.74
2022-10-05T14:41:04.041Z,23.77
2022-10-05T14:43:33.761Z,24.07
2022-10-05T14:46:01.396Z,24.38
2022-10-05T14:48:40.460Z,24.37
2022-10-05T14:51:12.887Z,25.17
2022-10-05T14:53:43.415Z,25.84
2022-10-05T14:56:17.282Z,26.02
2022-10-05T14:58:59.708Z,26.10
2022-10-05T15:01:39.269Z,26.13
2022-10-05T15:04:35.198Z,26.53
2022-10-05T15:07:20.299Z,27.29
2022-10-05T15:10:03.833Z,28.00
2022-10-05T15:12:43.545Z,27.65
2022-10-05T15:15:28.442Z,28.46
2022-10-05T15:18:23.197Z,28.79
2022-10-05T15:21:15.026Z,28.89
2022-10-05T15:23:50.635Z,28.71
2022-10-05T15:26:37.674Z,29.35
2022-10-05T15:29:27.266Z,29.02
2022-10-05T15:32:14.799Z,29.13
2022-10-05T15:34:49.128Z,29.13
2022-10-05T15:37:42.061Z,29.84
2022-10-05T15:41:08.304Z,29.68
2022-10-05T15:43:55.284Z,30.03
2022-10-05T15:46:56.472Z,30.47
2022-10-05T15:49:26.257Z,30.57
2022-10-05T15:52:05.193Z,30.87
2022-10-05T15:55:02.978Z,30.57
2022-10-05T15:57:36.671Z,31.08
2022-10-05T16:00:11.517Z,30.52
2022-10-05T16:02:56.658Z,31.54
2022-10-05T16:06:02.385Z,31.53
2022-10-05T16:08:54.346Z,32.02
2022-10-05T16:11:34.091Z,31.46
2022-10-05T16:14:19.354Z,31.32
2022-10-05T16:17:09.685Z,30.46
2022-10-05T16:19:48.119Z,31.13
2022-10-05T16:22:43.368Z,30.82
2022-10-05T16:25:47.077Z,31.59
2022-10-05T16:28:49.925Z,31.59
2022-10-05T16:31:23.342Z,31.89
2022-10-05T16:34:17.116Z,31.51
2022-10-05T16:37:19.422Z,31.83
2022-10-05T16:40:00.144Z,32.04
2022-10-05T16:42:44.087Z,32.05
2022-10-05T16:45:44.995Z,32.08
2022-10-05T16:48:16.991Z,31.87
2022-10-05T16:51:41.379Z,32.08
2022-10-05T16:54:44.202Z,31.94
2022-10-05T16:57:28.626Z,32.30
2022-10-05T17:00:15.685Z,32.24
2022-10-05T17:02:54.642Z,31.97
2022-10-05T17:05:44.183Z,31.79
2022-10-05T17:08:36.848Z,32.22
2022-10-05T17:11:46.281Z,32.93
2022-10-05T17:14:20.257Z,33.79
2022-10-05T17:17:00.277Z,34.11
2022-10-05T17:19:46.679Z,34.25
2022-10-05T17:22:25.846Z,35.08
2022-10-05T17:25:06.258Z,34.74
2022-10-05T17:27:51.040Z,36.16
2022-10-05T17:30:23.228Z,35.61
2022-10-05T17:33:04.560Z,35.51
2022-10-05T17:35:47.524Z,35.91
2022-10-05T17:38:20.231Z,36.60
2022-10-05T17:41:16.495Z,36.05
2022-10-05T17:44:18.982Z,36.05
2022-10-05T17:46:51.622Z,35.95
2022-10-05T17:49:34.151Z,35.83
2022-10-05T17:52:23.348Z,35.89
2022-10-05T17:55:08.602Z,36.96
2022-10-05T17:57:36.991Z,36.93
2022-10-05T18:00:32.064Z,37.79
2022-10-05T18:02:59.429Z,36.46
2022-10-05T18:05:30.388Z,36.96
2022-10-05T18:08:12.674Z,36.52
2022-10-05T18:11:07.262Z,36.13
2022-10-05T18:13:46.400Z,36.29
2022-10-05T18:16:33.478Z,37.64
2022-10-05T18:19:01.583Z,38.63
2022-10-05T18:21:34.372Z,37.05
2022-10-05T18:24:26.720Z,38.78
2022-10-05T18:26:59.500Z,37.46
2022-10-05T18:30:02.893Z,37.33
2022-10-05T18:32:43.433Z,37.91
2022-10-05T18:35:24.884Z,38.52
2022-10-05T18:37:54.571Z,39.05
2022-10-05T18:40:37.455Z,38.82
2022-10-05T18:43:19.366Z,38.83
2022-10-05T18:45:58.541Z,38.96
2022-10-05T18:49:03.025Z,38.96
2022-10-05T18:51:54.704Z,39.51
2022-10-05T18:54:56.563Z,39.86
2022-10-05T18:57:30.004Z,39.31
2022-10-05T19:00:04.077Z,39.91
2022-10-05T19:02:36.934Z,40.10
2022-10-05T19:05:29.180Z,39.78
2022-10-05T19:08:08.064Z,41.05
2022-10-05T19:10:45.314Z,41.01
2022-10-05T19:13:21.846Z,41.00
2022-10-05T19:16:31.271Z,40.52
2022-10-05T19:19:34.967Z,40.60
2022-10-05T19:22:29.331Z,40.89
2022-10-05T19:25:14.924Z,40.50
2022-10-05T19:28:04.326Z,41.37
2022-10-05T19:30:57.164Z,41.57
2022-10-05T19:33:47.047Z,40.74
2022-10-05T19:36:22.863Z,41.00
2022-10-05T19:38:55.595Z,41.32
2022-10-05T19:41:53.355Z,41.32
2022-10-05T19:44:31.389Z,40.82
2022-10-05T19:47:14.925Z,40.93
2022-10-05T19:49:56.787Z,41.36
2022-10-05T19:52:36.400Z,41.03
2022-10-05T19:55:15.080Z,40.85
2022-10-05T19:57:57.604Z,41.12
2022-10-05T20:00:33.082Z,41.25
2022-10-05T20:03:26.618Z,42.36
2022-10-05T20:05:54.915Z,41.19
2022-10-05T20:08:25.292Z,41.00
2022-10-05T20:11:10.723Z,41.81
2022-10-05T20:13:39.983Z,41.77
2022-10-05T20:16:35.583Z,41.52
2022-10-05T20:19:41.525Z,40.68
2022-10-05T20:22:27.097Z,40.54
2022-10-05T20:25:01.096Z,41.04
2022-10-05T20:27:35.734Z,42.73
2022-10-05T20:30:02.700Z,43.12
2022-10-05T20:32:30.903Z,43.17
2022-10-05T20:34:57.736Z,43.86
2022-10-05T20:37:24.713Z,44.45
2022-10-05T20:39:51.633Z,45.13
2022-10-05T20:42:20.174Z,43.79
2022-10-05T20:44:47.119Z,43.89
2022-10-05T20:47:13.987Z,43.77
2022-10-05T20:49:44.535Z,42.02
2022-10-05T20:52:13.247Z,42.68
2022-10-05T20:54:40.194Z,43.92
2022-10-05T20:57:07.056Z,44.37
2022-10-05T20:59:34.736Z,45.54
2022-10-05T21:02:02.193Z,46.64
2022-10-05T21:04:40.944Z,45.93
2022-10-05T21:07:09.224Z,48.52
2022-10-05T21:09:38.642Z,48.39
2022-10-05T21:12:05.459Z,47.18
2022-10-05T21:14:34.417Z,45.72
2022-10-05T21:17:02.170Z,45.22
2022-10-05T21:19:29.585Z,45.46
2022-10-05T21:21:59.508Z,45.87
2022-10-05T21:24:26.373Z,45.56
2022-10-05T21:26:56.758Z,45.98
2022-10-05T21:29:23.631Z,45.90
2022-10-05T21:31:50.975Z,46.01
2022-10-05T21:34:18.038Z,46.08
2022-10-05T21:36:44.789Z,46.17
2022-10-05T21:39:11.815Z,45.00
2022-10-05T21:41:38.534Z,46.07
2022-10-05T21:44:06.749Z,45.70
2022-10-05T21:46:36.499Z,45.59
2022-10-05T21:49:05.208Z,45.66
2022-10-05T21:51:35.342Z,45.89
2022-10-05T21:54:08.343Z,45.35
2022-10-05T21:56:40.146Z,44.87
2022-10-05T21:59:10.257Z,44.47
2022-10-05T22:01:36.961Z,44.63
2022-10-05T22:04:05.342Z,44.96
2022-10-05T22:06:32.836Z,44.92
2022-10-05T22:08:59.721Z,45.59
2022-10-05T22:11:29.070Z,44.93
2022-10-05T22:14:02.207Z,45.21
2022-10-05T22:16:32.845Z,45.72
2022-10-05T22:19:04.072Z,46.05
2022-10-05T22:21:32.827Z,46.11
2022-10-05T22:24:02.413Z,46.59
2022-10-05T22:26:29.705Z,45.26
2022-10-05T22:28:57.068Z,45.25
2022-10-05T22:31:23.834Z,44.04
2022-10-05T22:33:51.304Z,44.09
2022-10-05T22:36:19.284Z,44.85
2022-10-05T22:38:47.582Z,44.76
2022-10-05T22:41:16.483Z,44.66
2022-10-05T22:43:43.184Z,44.91
2022-10-05T22:46:12.500Z,45.20
2022-10-05T22:48:40.521Z,44.49
2022-10-05T22:51:08.088Z,46.06
2022-10-05T22:53:35.275Z,45.87
2022-10-05T22:56:10.355Z,45.03
2022-10-05T22:58:39.281Z,46.30
2022-10-05T23:01:18.749Z,45.88
2022-10-05T23:03:46.097Z,46.71
2022-10-05T23:06:18.610Z,46.73
2022-10-05T23:08:46.341Z,47.04
2022-10-05T23:11:19.486Z,45.79
2022-10-05T23:13:46.493Z,46.07
2022-10-05T23:16:19.535Z,46.12
2022-10-05T23:18:51.472Z,46.93
2022-10-05T23:21:21.663Z,46.55
2022-10-05T23:23:51.064Z,46.92
2022-10-05T23:26:23.987Z,46.82
2022-10-05T23:28:51.457Z,46.73
2022-10-05T23:31:21.960Z,46.43
2022-10-05T23:33:49.140Z,46.65
2022-10-05T23:36:21.861Z,46.06
2022-10-05T23:38:49.508Z,46.45
2022-10-05T23:41:17.546Z,46.40
2022-10-05T23:43:44.469Z,48.14
2022-10-05T23:46:11.980Z,47.25
2022-10-05T23:48:39.605Z,47.02
2022-10-05T23:51:09.396Z,47.04
2022-10-05T23:53:36.438Z,47.96
2022-10-05T23:56:03.803Z,49.06
2022-10-05T23:58:31.528Z,47.42
